createdAt,value
2022-12-20T00:17:40.440Z,6.4
2022-12-20T01:05:42.624Z,9.4
2022-12-20T01:18:35.357Z,8.8
2022-12-20T01:32:03.596Z,8.1
2022-12-20T01:58:22.202Z,7.2
2022-12-20T02:11:13.796Z,6.1
2022-12-20T02:17:09.800Z,6.2
2022-12-20T02:23:24.434Z,6.7
2022-12-20T02:29:27.394Z,7
2022-12-20T02:35:31.053Z,6.7
2022-12-20T02:41:52.657Z,6.8
2022-12-20T02:48:03.178Z,6.9
2022-12-20T02:53:53.419Z,7.1
2022-12-20T03:00:21.964Z,7.3
2022-12-20T03:06:58.021Z,7.2
2022-12-20T03:13:25.995Z,7.4
2022-12-20T03:19:38.724Z,8
2022-12-20T03:25:46.213Z,8
2022-12-20T03:31:59.451Z,7.9
2022-12-20T03:38:15.733Z,7
2022-12-20T03:44:20.720Z,6.8
2022-12-20T03:50:38.523Z,6
2022-12-20T03:57:19.473Z,5.7
2022-12-20T04:03:50.244Z,5.2
2022-12-20T04:09:40.189Z,5.1
2022-12-20T04:15:34.549Z,5.6
2022-12-20T04:21:25.801Z,4.9
2022-12-20T04:27:16.400Z,5.2
2022-12-20T04:33:10.163Z,5.3
2022-12-20T04:39:01.481Z,5.1
2022-12-20T04:44:54.422Z,4.7
2022-12-20T04:50:45.118Z,4.8
2022-12-20T04:56:36.432Z,5.2
2022-12-20T05:02:28.301Z,5.4
2022-12-20T05:08:19.235Z,5.5
2022-12-20T05:14:12.287Z,4.9
2022-12-20T05:20:09.437Z,4.7
2022-12-20T05:26:00.125Z,5.1
2022-12-20T05:31:51.402Z,5.3
2022-12-20T05:37:42.916Z,4.8
2022-12-20T05:43:34.488Z,4.9
2022-12-20T05:49:24.810Z,4.6
2022-12-20T05:55:14.759Z,4.8
2022-12-20T06:01:04.386Z,5.1
2022-12-20T06:06:53.832Z,4.7
2022-12-20T06:12:43.614Z,6
2022-12-20T06:18:33.233Z,4.5
2022-12-20T06:24:25.811Z,4.8
2022-12-20T06:30:16.503Z,5.1
2022-12-20T06:36:07.418Z,4.9
2022-12-20T06:41:58.449Z,4.8
2022-12-20T06:47:50.149Z,5.2
2022-12-20T06:53:41.174Z,5.2
2022-12-20T06:59:33.261Z,5.2
2022-12-20T07:05:24.373Z,4.8
2022-12-20T07:11:16.179Z,4.4
2022-12-20T07:17:08.292Z,4.2
2022-12-20T07:22:59.770Z,4.2
2022-12-20T07:28:51.948Z,4.2
2022-12-20T07:34:45.576Z,4.2
2022-12-20T07:40:36.874Z,4.7
2022-12-20T07:46:34.571Z,4.9
2022-12-20T07:52:25.452Z,4.6
2022-12-20T07:58:16.220Z,4.4
2022-12-20T08:04:07.980Z,4
2022-12-20T08:09:59.169Z,3.8
2022-12-20T08:15:50.376Z,3.8
2022-12-20T08:21:42.296Z,3.2
2022-12-20T08:27:34.305Z,4.3
2022-12-20T08:33:28.534Z,3.9
2022-12-20T08:39:20.459Z,3.4
2022-12-20T08:45:12.235Z,4.4
2022-12-20T08:51:03.177Z,3.8
2022-12-20T08:56:54.046Z,3
2022-12-20T09:02:44.653Z,2.9
2022-12-20T09:08:34.716Z,3.4
2022-12-20T09:14:25.344Z,3.2
2022-12-20T09:20:17.049Z,3.7
2022-12-20T09:26:09.754Z,3.3
2022-12-20T09:32:01.418Z,3.8
2022-12-20T09:37:52.641Z,17.9
2022-12-20T09:43:44.042Z,3.1
2022-12-20T09:49:35.964Z,3.3
2022-12-20T09:55:27.026Z,8.3
2022-12-20T10:01:40.869Z,3.3
2022-12-20T10:07:31.109Z,3.1
2022-12-20T10:13:22.483Z,3
2022-12-20T10:19:14.424Z,3.6
2022-12-20T10:25:05.395Z,2.8
2022-12-20T10:30:56.873Z,3
2022-12-20T10:36:49.602Z,3.2
2022-12-20T10:42:40.287Z,2.9
2022-12-20T10:48:31.732Z,3
2022-12-20T10:54:23.122Z,2.8
2022-12-20T11:00:15.010Z,2.3
2022-12-20T11:06:07.529Z,2.4
2022-12-20T11:11:59.236Z,3
2022-12-20T11:17:50.929Z,2.3
2022-12-20T11:23:45.948Z,2.2
2022-12-20T11:29:40.810Z,2
2022-12-20T11:35:33.451Z,2.3
2022-12-20T11:41:24.844Z,3.6
2022-12-20T11:47:15.954Z,5.2
2022-12-20T11:53:06.628Z,3.7
2022-12-20T11:58:57.537Z,2.7
2022-12-20T12:04:48.650Z,2.6
2022-12-20T12:10:38.948Z,2.8
2022-12-20T12:17:40.942Z,2.8
2022-12-20T12:23:31.232Z,2.2
2022-12-20T12:29:26.343Z,2.4
2022-12-20T12:35:19.778Z,2.2
2022-12-20T12:41:10.512Z,2.2
2022-12-20T12:47:03.774Z,2.8
2022-12-20T13:00:07.743Z,2.8
2022-12-20T13:05:58.572Z,2.3
2022-12-20T13:12:18.761Z,2.9
2022-12-20T13:18:21.889Z,2.7
2022-12-20T13:24:20.087Z,2.8
2022-12-20T13:30:09.829Z,2.7
2022-12-20T13:36:02.536Z,3
2022-12-20T13:41:53.692Z,2.5
2022-12-20T13:47:48.162Z,2.9
2022-12-20T13:53:43.987Z,2.5
2022-12-20T13:59:36.686Z,2.5
2022-12-20T14:05:29.109Z,2.9
2022-12-20T14:11:20.247Z,3
2022-12-20T14:17:11.515Z,2.9
2022-12-20T14:23:11.429Z,2.5
2022-12-20T14:29:03.760Z,3
2022-12-20T14:34:55.330Z,3.1
2022-12-20T14:40:56.135Z,2.9
2022-12-20T14:46:56.255Z,3.1
2022-12-20T14:52:45.629Z,2.8
2022-12-20T14:58:36.743Z,2.8
2022-12-20T15:04:28.591Z,2.4
2022-12-20T15:10:20.119Z,2.4
2022-12-20T15:16:14.965Z,2.5
2022-12-20T15:22:07.504Z,2.9
2022-12-20T15:27:59.147Z,2.5
2022-12-20T15:33:53.283Z,2.7
2022-12-20T15:39:45.534Z,2.8
2022-12-20T15:45:42.832Z,2.6
2022-12-20T15:51:34.042Z,2.3
2022-12-20T15:57:24.850Z,2.3
2022-12-20T16:03:15.409Z,2.6
2022-12-20T16:09:03.930Z,2.7
2022-12-20T16:14:56.533Z,3.1
2022-12-20T16:20:45.813Z,3.9
2022-12-20T16:26:49.353Z,4.2
2022-12-20T16:32:49.000Z,4.2
2022-12-20T16:38:42.615Z,4.6
2022-12-20T16:44:33.692Z,4.3
2022-12-20T16:50:32.361Z,4.2
2022-12-20T16:56:23.747Z,4.4
2022-12-20T17:02:15.963Z,4.7
2022-12-20T17:14:50.968Z,4.1
2022-12-20T17:20:44.532Z,4
2022-12-20T17:26:35.408Z,4.1
2022-12-20T17:32:26.401Z,4.1
2022-12-20T17:38:16.176Z,4.5
2022-12-20T17:44:07.843Z,6
2022-12-20T17:49:58.086Z,6
2022-12-20T17:55:49.471Z,4.8
2022-12-20T18:01:43.375Z,6.5
2022-12-20T18:07:33.307Z,5.5
2022-12-20T18:13:23.785Z,6.2
2022-12-20T18:19:20.731Z,4.8
2022-12-20T18:25:11.292Z,4.5
2022-12-20T18:31:01.992Z,4.3
2022-12-20T18:36:54.211Z,4.9
2022-12-20T18:42:44.457Z,4
2022-12-20T18:48:35.223Z,4.7
2022-12-20T18:54:26.373Z,4.4
2022-12-20T19:00:19.871Z,4.7
2022-12-20T19:06:10.876Z,4.6
2022-12-20T19:12:09.046Z,5.2
2022-12-20T19:17:58.025Z,6
2022-12-20T19:23:48.682Z,5.1
2022-12-20T19:29:39.277Z,5
2022-12-20T19:36:04.992Z,5.1
2022-12-20T19:42:42.306Z,4.8
2022-12-20T19:48:30.343Z,4.6
2022-12-20T19:54:21.953Z,4.5
2022-12-20T20:00:12.594Z,4.7
2022-12-20T20:06:04.678Z,4.1
2022-12-20T20:12:09.434Z,4.4
2022-12-20T20:18:00.483Z,4.3
2022-12-20T20:23:50.974Z,3.9
2022-12-20T20:29:41.685Z,4.3
2022-12-20T20:35:34.404Z,4
2022-12-20T20:41:24.729Z,3.9
2022-12-20T20:47:15.052Z,4.1
2022-12-20T20:53:04.739Z,4.2
2022-12-20T20:59:09.399Z,4
2022-12-20T21:06:42.468Z,4.3
2022-12-20T21:12:31.663Z,4.5
2022-12-20T21:18:22.135Z,6.9
2022-12-20T21:24:15.305Z,4.3
2022-12-20T21:30:05.355Z,4
2022-12-20T21:36:01.010Z,3.1
2022-12-20T21:41:50.577Z,3.1
2022-12-20T21:47:42.191Z,3
2022-12-20T21:53:33.816Z,3.4
2022-12-20T21:59:24.694Z,2.6
2022-12-20T22:05:15.943Z,2.1
2022-12-20T22:11:07.107Z,2.5
2022-12-20T22:16:58.171Z,1.8
2022-12-20T22:22:50.326Z,1.8
2022-12-20T22:28:52.916Z,1.5
2022-12-20T22:34:43.287Z,1.5
2022-12-20T22:40:32.776Z,1.5
2022-12-20T22:46:23.226Z,1.9
2022-12-20T22:52:14.292Z,2.7
2022-12-20T22:58:04.909Z,2.7
2022-12-20T23:03:56.209Z,3.1
2022-12-20T23:09:50.191Z,3.2
2022-12-20T23:15:41.990Z,3.8
2022-12-20T23:21:34.314Z,3.6
2022-12-20T23:27:26.681Z,3.2
2022-12-20T23:33:17.244Z,3.7
2022-12-20T23:39:08.225Z,3.1
2022-12-20T23:44:58.879Z,3.2
2022-12-20T23:50:50.161Z,2.8
2022-12-20T23:56:42.500Z,3.7
